createdAt,value
2018-09-24T00:01:30.272Z,102164.97
2018-09-24T00:03:59.091Z,102173.86
2018-09-24T00:06:27.911Z,102181.97
2018-09-24T00:08:56.739Z,102175.21
2018-09-24T00:11:25.555Z,102181.97
2018-09-24T00:13:54.380Z,102186.50
2018-09-24T00:16:23.219Z,102194.22
2018-09-24T00:18:52.052Z,102198.09
2018-09-24T00:21:20.884Z,102200.58
2018-09-24T00:23:49.713Z,102195.75
2018-09-24T00:26:18.544Z,102200.37
2018-09-24T00:28:47.363Z,102205.98
2018-09-24T00:31:16.220Z,102213.30
2018-09-24T00:33:45.050Z,102209.81
2018-09-24T00:36:13.870Z,102224.67
2018-09-24T00:38:42.683Z,102226.98
2018-09-24T00:41:11.555Z,102234.81
2018-09-24T00:43:40.380Z,102237.21
2018-09-24T00:46:09.203Z,102250.02
2018-09-24T00:48:38.027Z,102255.03
2018-09-24T00:51:06.852Z,102254.55
2018-09-24T00:53:35.653Z,102264.89
2018-09-24T00:56:04.465Z,102261.63
2018-09-24T00:58:33.290Z,102270.22
2018-09-24T01:01:02.137Z,102269.55
2018-09-24T01:03:30.987Z,102282.21
2018-09-24T01:05:59.844Z,102292.44
2018-09-24T01:08:28.692Z,102300.80
2018-09-24T01:10:57.528Z,102306.03
2018-09-24T01:13:26.332Z,102305.42
2018-09-24T01:15:55.163Z,102304.29
2018-09-24T01:18:24.032Z,102309.22
2018-09-24T01:20:52.856Z,102314.53
2018-09-24T01:23:21.663Z,102317.72
2018-09-24T01:25:50.505Z,102330.28
2018-09-24T01:28:19.332Z,102331.16
2018-09-24T01:30:48.160Z,102334.03
2018-09-24T01:33:16.979Z,102340.78
2018-09-24T01:35:45.813Z,102343.90
2018-09-24T01:38:14.673Z,102345.31
2018-09-24T01:40:43.491Z,102341.33
2018-09-24T01:43:12.318Z,102340.16
2018-09-24T01:45:41.130Z,102342.17
2018-09-24T01:48:09.970Z,102350.59
2018-09-24T01:50:38.803Z,102349.68
2018-09-24T01:53:08.272Z,102358.14
2018-09-24T01:55:37.460Z,102358.70
2018-09-24T01:58:06.328Z,102362.56
2018-09-24T02:00:35.132Z,102358.80
2018-09-24T02:03:04.010Z,102358.23
2018-09-24T02:05:32.839Z,102366.22
2018-09-24T02:08:01.665Z,102362.77
2018-09-24T02:10:30.500Z,102361.41
2018-09-24T02:12:59.333Z,102356.73
2018-09-24T02:15:30.217Z,102360.87
2018-09-24T02:17:59.073Z,102370.03
2018-09-24T02:20:27.998Z,102368.45
2018-09-24T02:22:56.825Z,102373.05
2018-09-24T02:25:25.653Z,102374.48
2018-09-24T02:27:54.459Z,102369.95
2018-09-24T02:30:23.299Z,102381.70
2018-09-24T02:32:52.128Z,102380.07
2018-09-24T02:35:20.980Z,102379.59
2018-09-24T02:37:49.796Z,102394.99
2018-09-24T02:40:25.294Z,102391.50
2018-09-24T02:42:54.125Z,102397.05
2018-09-24T02:45:22.961Z,102403.80
2018-09-24T02:47:51.774Z,102414.91
2018-09-24T02:50:20.599Z,102415.39
2018-09-24T02:52:49.444Z,102424.44
2018-09-24T02:55:19.049Z,102422.95
2018-09-24T02:57:47.878Z,102425.84
2018-09-24T03:00:20.407Z,102429.10
2018-09-24T03:02:49.266Z,102430.53
2018-09-24T03:05:18.125Z,102436.64
2018-09-24T03:07:46.973Z,102438.28
2018-09-24T03:10:15.892Z,102444.26
2018-09-24T03:12:50.199Z,102450.08
2018-09-24T03:15:19.131Z,102448.13
2018-09-24T03:17:48.006Z,102456.45
2018-09-24T03:20:16.813Z,102457.19
2018-09-24T03:22:45.631Z,102454.71
2018-09-24T03:25:17.910Z,102458.84
2018-09-24T03:27:46.931Z,102466.31
2018-09-24T03:30:15.996Z,102467.73
2018-09-24T03:32:44.844Z,102467.89
2018-09-24T03:35:13.660Z,102470.37
2018-09-24T03:37:42.510Z,102469.24
2018-09-24T03:40:11.320Z,102477.59
2018-09-24T03:42:40.173Z,102480.91
2018-09-24T03:45:08.986Z,102477.41
2018-09-24T03:47:37.798Z,102485.64
2018-09-24T03:50:06.686Z,102492.97
2018-09-24T03:52:35.508Z,102501.61
2018-09-24T03:55:04.360Z,102509.04
2018-09-24T03:57:33.199Z,102509.69
2018-09-24T04:00:02.167Z,102507.00
2018-09-24T04:02:31.006Z,102508.16
2018-09-24T04:05:17.965Z,102505.66
2018-09-24T04:08:04.439Z,102501.20
2018-09-24T04:10:51.186Z,102506.20
2018-09-24T04:13:37.533Z,102501.83
2018-09-24T04:16:24.319Z,102513.27
2018-09-24T04:19:10.691Z,102517.85
2018-09-24T04:21:57.181Z,102527.68
2018-09-24T04:24:43.984Z,102529.17
2018-09-24T04:27:30.556Z,102526.62
2018-09-24T04:30:17.305Z,102527.97
2018-09-24T04:33:03.860Z,102536.38
2018-09-24T04:35:50.211Z,102536.86
2018-09-24T04:38:36.956Z,102547.66
2018-09-24T04:41:23.515Z,102549.80
2018-09-24T04:44:09.973Z,102556.47
2018-09-24T04:46:56.708Z,102555.33
2018-09-24T04:49:43.271Z,102562.94
2018-09-24T04:52:30.083Z,102567.79
2018-09-24T04:55:16.760Z,102567.88
2018-09-24T04:58:03.425Z,102573.53
2018-09-24T05:00:50.073Z,102573.39
2018-09-24T05:03:36.946Z,102578.34
2018-09-24T05:06:23.611Z,102584.53
2018-09-24T05:09:10.155Z,102592.05
2018-09-24T05:11:57.028Z,102594.52
2018-09-24T05:14:43.750Z,102588.95
2018-09-24T05:17:30.565Z,102587.86
2018-09-24T05:20:17.192Z,102597.38
2018-09-24T05:23:03.500Z,102596.13
2018-09-24T05:25:50.246Z,102598.50
2018-09-24T05:28:36.867Z,102598.03
2018-09-24T05:31:23.659Z,102594.39
2018-09-24T05:34:10.010Z,102591.62
2018-09-24T05:36:56.557Z,102607.70
2018-09-24T05:39:43.021Z,102608.69
2018-09-24T05:42:29.396Z,102618.97
2018-09-24T05:45:15.911Z,102618.42
2018-09-24T05:48:02.988Z,102625.09
2018-09-24T05:50:49.572Z,102626.70
2018-09-24T05:53:36.038Z,102623.28
2018-09-24T05:56:22.836Z,102627.98
2018-09-24T05:59:09.567Z,102623.46
2018-09-24T06:01:56.102Z,102625.91
2018-09-24T06:04:43.128Z,102626.78
2018-09-24T06:07:29.401Z,102634.73
2018-09-24T06:10:16.003Z,102632.11
2018-09-24T06:13:02.992Z,102629.25
2018-09-24T06:15:49.538Z,102631.41
2018-09-24T06:18:36.418Z,102638.63
2018-09-24T06:21:23.296Z,102646.73
2018-09-24T06:24:09.646Z,102649.73
2018-09-24T06:26:56.394Z,102653.52
2018-09-24T06:29:42.818Z,102652.86
2018-09-24T06:32:29.153Z,102664.16
2018-09-24T06:35:15.733Z,102674.56
2018-09-24T06:38:02.293Z,102668.58
2018-09-24T06:40:49.347Z,102670.33
2018-09-24T06:43:35.880Z,102678.13
2018-09-24T06:46:22.251Z,102682.02
2018-09-24T06:49:09.219Z,102687.89
2018-09-24T06:51:55.975Z,102697.25
2018-09-24T06:54:42.334Z,102700.26
2018-09-24T06:57:29.320Z,102696.73
2018-09-24T07:00:15.869Z,102704.34
2018-09-24T07:03:02.703Z,102707.27
2018-09-24T07:05:49.696Z,102720.25
2018-09-24T07:08:36.530Z,102731.70
2018-09-24T07:11:22.982Z,102726.84
2018-09-24T07:14:09.806Z,102736.62
2018-09-24T07:16:56.120Z,102737.62
2018-09-24T07:19:42.915Z,102744.11
2018-09-24T07:22:29.422Z,102746.98
2018-09-24T07:25:15.953Z,102757.80
2018-09-24T07:28:02.692Z,102756.23
2018-09-24T07:30:49.272Z,102761.64
2018-09-24T07:33:35.782Z,102764.53
2018-09-24T07:36:22.355Z,102769.30
2018-09-24T07:39:08.942Z,102778.00
2018-09-24T07:41:55.328Z,102778.39
2018-09-24T07:44:42.183Z,102784.79
2018-09-24T07:47:28.822Z,102781.07
2018-09-24T07:50:15.179Z,102783.34
2018-09-24T07:53:01.988Z,102792.16
2018-09-24T07:55:48.633Z,102789.63
2018-09-24T07:58:35.597Z,102802.53
2018-09-24T08:01:22.498Z,102798.02
2018-09-24T08:04:09.125Z,102806.33
2018-09-24T08:06:55.520Z,102798.52
2018-09-24T08:09:42.315Z,102802.11
2018-09-24T08:12:28.865Z,102810.25
2018-09-24T08:15:15.697Z,102816.95
2018-09-24T08:18:02.022Z,102822.43
2018-09-24T08:20:48.331Z,102834.27
2018-09-24T08:23:35.203Z,102834.59
2018-09-24T08:26:21.957Z,102844.02
2018-09-24T08:29:08.569Z,102847.88
2018-09-24T08:31:55.623Z,102828.50
2018-09-24T08:34:42.438Z,102838.10
2018-09-24T08:37:29.270Z,102846.73
2018-09-24T08:40:15.911Z,102849.92
2018-09-24T08:43:02.421Z,102852.66
2018-09-24T08:45:48.910Z,102851.21
2018-09-24T08:48:35.957Z,102849.02
2018-09-24T08:51:22.859Z,102855.09
2018-09-24T08:54:09.723Z,102859.20
2018-09-24T08:57:15.298Z,102854.21
2018-09-24T09:00:02.165Z,102862.80
2018-09-24T09:02:49.333Z,102852.45
2018-09-24T09:05:36.139Z,102851.03
2018-09-24T09:08:23.036Z,102865.58
2018-09-24T09:11:09.843Z,102871.89
2018-09-24T09:13:56.482Z,102872.66
2018-09-24T09:16:42.967Z,102879.36
2018-09-24T09:19:29.865Z,102873.91
2018-09-24T09:22:16.687Z,102876.72
2018-09-24T09:25:03.237Z,102876.67
2018-09-24T09:27:50.003Z,102879.70
2018-09-24T09:30:36.765Z,102886.55
2018-09-24T09:33:23.797Z,102872.95
2018-09-24T09:36:10.607Z,102884.95
2018-09-24T09:38:56.875Z,102881.40
2018-09-24T09:41:43.365Z,102875.51
2018-09-24T09:44:30.205Z,102883.54
2018-09-24T09:47:16.529Z,102876.58
2018-09-24T09:50:03.420Z,102874.60
2018-09-24T09:52:50.102Z,102867.36
2018-09-24T09:55:36.767Z,102875.97
2018-09-24T09:58:23.324Z,102867.11
2018-09-24T10:01:11.365Z,102873.23
2018-09-24T10:03:59.037Z,102859.79
2018-09-24T10:06:47.047Z,102867.82
2018-09-24T10:09:34.534Z,102872.53
2018-09-24T10:12:21.928Z,102872.71
2018-09-24T10:15:11.094Z,102874.05
2018-09-24T10:17:57.884Z,102864.14
2018-09-24T10:20:45.504Z,102877.13
2018-09-24T10:23:33.925Z,102879.67
2018-09-24T10:26:21.418Z,102872.89
2018-09-24T10:29:07.984Z,102886.51
2018-09-24T10:31:55.739Z,102888.28
2018-09-24T10:34:43.586Z,102882.33
2018-09-24T10:37:30.196Z,102877.95
2018-09-24T10:40:16.521Z,102884.98
2018-09-24T10:43:03.529Z,102887.47
2018-09-24T10:45:50.082Z,102891.20
2018-09-24T10:48:36.837Z,102900.02
2018-09-24T10:51:23.439Z,102902.59
2018-09-24T10:54:10.092Z,102902.38
2018-09-24T10:56:56.585Z,102900.67
2018-09-24T10:59:43.252Z,102899.48
2018-09-24T11:02:29.821Z,102899.92
2018-09-24T11:05:16.451Z,102902.97
2018-09-24T11:08:02.856Z,102895.74
2018-09-24T11:10:49.564Z,102893.47
2018-09-24T11:13:35.887Z,102891.72
2018-09-24T11:16:23.085Z,102888.27
2018-09-24T11:19:09.592Z,102892.18
2018-09-24T11:21:56.376Z,102893.36
2018-09-24T11:24:43.192Z,102904.66
2018-09-24T11:27:29.999Z,102908.33
2018-09-24T11:30:16.648Z,102918.75
2018-09-24T11:33:03.097Z,102927.09
2018-09-24T11:35:49.739Z,102930.36
2018-09-24T11:38:36.288Z,102930.22
2018-09-24T11:41:23.073Z,102932.03
2018-09-24T11:44:09.654Z,102924.25
2018-09-24T11:46:56.225Z,102926.31
2018-09-24T11:49:42.907Z,102934.29
2018-09-24T11:52:29.526Z,102932.80
2018-09-24T11:55:16.152Z,102933.50
2018-09-24T11:58:02.433Z,102916.64
2018-09-24T12:00:49.078Z,102920.86
2018-09-24T12:03:35.629Z,102920.64
2018-09-24T12:06:22.477Z,102926.77
2018-09-24T12:09:09.007Z,102926.72
2018-09-24T12:11:55.612Z,102924.66
2018-09-24T12:14:42.233Z,102928.98
2018-09-24T12:17:29.027Z,102926.88
2018-09-24T12:20:15.890Z,102917.66
2018-09-24T12:23:02.568Z,102920.07
2018-09-24T12:25:49.609Z,102916.30
2018-09-24T12:28:35.879Z,102923.66
2018-09-24T12:31:22.601Z,102927.11
2018-09-24T12:34:09.489Z,102928.35
2018-09-24T12:36:55.914Z,102916.44
2018-09-24T12:39:42.280Z,102911.66
2018-09-24T12:42:28.828Z,102902.38
2018-09-24T12:45:15.576Z,102911.09
2018-09-24T12:48:02.202Z,102913.36
2018-09-24T12:50:48.974Z,102914.66
2018-09-24T12:53:35.750Z,102925.97
2018-09-24T12:56:22.198Z,102920.00
2018-09-24T12:59:08.808Z,102920.52
2018-09-24T13:01:55.492Z,102927.24
2018-09-24T13:04:42.268Z,102933.34
2018-09-24T13:07:28.771Z,102937.61
2018-09-24T13:10:15.712Z,102941.25
2018-09-24T13:13:02.407Z,102947.05
2018-09-24T13:15:48.999Z,102947.25
2018-09-24T13:18:35.781Z,102937.38
2018-09-24T13:21:22.205Z,102938.36
2018-09-24T13:24:08.871Z,102934.94
2018-09-24T13:26:55.467Z,102950.19
2018-09-24T13:29:42.036Z,102940.89
2018-09-24T13:32:28.630Z,102948.63
2018-09-24T13:35:15.334Z,102940.92
2018-09-24T13:38:01.982Z,102949.05
2018-09-24T13:40:48.738Z,102950.62
2018-09-24T13:43:35.762Z,102934.47
2018-09-24T13:46:22.497Z,102943.27
2018-09-24T13:49:09.274Z,102939.88
2018-09-24T13:51:56.077Z,102943.98
2018-09-24T13:54:42.634Z,102953.69
2018-09-24T13:57:29.404Z,102947.63
2018-09-24T14:00:16.169Z,102955.05
2018-09-24T14:03:03.090Z,102960.13
2018-09-24T14:05:49.591Z,102951.98
2018-09-24T14:08:35.914Z,102958.69
2018-09-24T14:11:22.456Z,102959.04
2018-09-24T14:14:09.004Z,102969.55
2018-09-24T14:16:55.549Z,102983.70
2018-09-24T14:19:41.959Z,102990.81
2018-09-24T14:22:28.411Z,102978.51
2018-09-24T14:25:14.985Z,102978.09
2018-09-24T14:28:01.945Z,102978.72
2018-09-24T14:30:48.296Z,102977.77
2018-09-24T14:33:34.871Z,102981.60
2018-09-24T14:36:21.404Z,102983.39
2018-09-24T14:39:07.749Z,102983.36
2018-09-24T14:41:54.359Z,102990.50
2018-09-24T14:44:41.340Z,102986.29
2018-09-24T14:47:27.912Z,102989.61
2018-09-24T14:50:14.811Z,102988.70
2018-09-24T14:53:01.787Z,102983.56
2018-09-24T14:55:48.304Z,102975.00
2018-09-24T14:58:35.159Z,102982.59
2018-09-24T15:01:21.971Z,102980.04
2018-09-24T15:04:08.613Z,102979.84
2018-09-24T15:06:55.164Z,102980.00
2018-09-24T15:09:42.005Z,102974.27
2018-09-24T15:12:28.652Z,102981.97
2018-09-24T15:15:15.177Z,102976.13
2018-09-24T15:18:01.538Z,102973.53
2018-09-24T15:20:48.344Z,102978.73
2018-09-24T15:23:34.677Z,102972.98
2018-09-24T15:26:21.110Z,102974.63
2018-09-24T15:29:07.685Z,102973.62
2018-09-24T15:31:54.512Z,102980.09
2018-09-24T15:34:41.288Z,102980.94
2018-09-24T15:37:27.679Z,102980.95
2018-09-24T15:40:14.046Z,102986.30
2018-09-24T15:43:00.897Z,102987.79
2018-09-24T15:45:47.281Z,102987.55
2018-09-24T15:48:33.627Z,102993.10
2018-09-24T15:51:20.282Z,102992.05
2018-09-24T15:54:07.078Z,102997.69
2018-09-24T15:56:53.716Z,103004.16
2018-09-24T15:59:40.501Z,102999.13
2018-09-24T16:02:27.219Z,103009.37
2018-09-24T16:05:13.792Z,103017.30
2018-09-24T16:08:00.398Z,103027.91
2018-09-24T16:10:46.865Z,103023.06
2018-09-24T16:13:33.714Z,103025.51
2018-09-24T16:16:20.535Z,103026.75
2018-09-24T16:19:07.171Z,103033.48
2018-09-24T16:21:53.872Z,103035.34
2018-09-24T16:24:40.559Z,103026.19
2018-09-24T16:27:27.039Z,103024.30
2018-09-24T16:30:13.760Z,103028.53
2018-09-24T16:33:00.582Z,103030.34
2018-09-24T16:35:47.247Z,103021.50
2018-09-24T16:38:33.769Z,103030.44
2018-09-24T16:41:20.081Z,103036.82
2018-09-24T16:44:06.705Z,103032.27
2018-09-24T16:46:53.060Z,103044.30
2018-09-24T16:49:39.574Z,103044.00
2018-09-24T16:52:26.347Z,103040.65
2018-09-24T16:55:12.959Z,103043.09
2018-09-24T16:57:59.594Z,103052.27
2018-09-24T17:00:45.958Z,103057.84
2018-09-24T17:03:32.752Z,103056.20
2018-09-24T17:06:19.165Z,103069.71
2018-09-24T17:09:06.218Z,103085.86
2018-09-24T17:11:52.709Z,103081.73
2018-09-24T17:14:39.311Z,103088.58
2018-09-24T17:17:26.231Z,103099.11
2018-09-24T17:20:12.728Z,103096.09
2018-09-24T17:22:59.176Z,103090.86
2018-09-24T17:25:45.742Z,103090.38
2018-09-24T17:28:32.647Z,103086.49
2018-09-24T17:31:19.173Z,103083.20
2018-09-24T17:34:05.695Z,103078.53
2018-09-24T17:36:52.398Z,103082.61
2018-09-24T17:39:39.195Z,103081.38
2018-09-24T17:42:25.648Z,103086.30
2018-09-24T17:45:12.242Z,103078.50
2018-09-24T17:47:58.571Z,103088.34
2018-09-24T17:50:45.110Z,103098.89
2018-09-24T17:53:31.793Z,103099.05
2018-09-24T17:56:18.292Z,103094.19
2018-09-24T17:59:04.632Z,103102.05
2018-09-24T18:01:51.345Z,103104.96
2018-09-24T18:04:38.096Z,103109.20
2018-09-24T18:07:24.675Z,103112.80
2018-09-24T18:10:11.205Z,103117.56
2018-09-24T18:12:57.979Z,103120.86
2018-09-24T18:15:44.549Z,103138.34
2018-09-24T18:18:31.216Z,103140.47
2018-09-24T18:21:17.687Z,103152.80
2018-09-24T18:24:04.327Z,103151.44
2018-09-24T18:26:50.732Z,103153.24
2018-09-24T18:29:37.275Z,103152.36
2018-09-24T18:32:23.876Z,103155.08
2018-09-24T18:35:10.772Z,103152.50
2018-09-24T18:37:57.686Z,103147.22
2018-09-24T18:40:44.406Z,103148.36
2018-09-24T18:43:31.157Z,103149.16
2018-09-24T18:46:17.481Z,103150.19
2018-09-24T18:49:03.875Z,103155.58
2018-09-24T18:51:50.267Z,103152.11
2018-09-24T18:54:37.050Z,103152.61
2018-09-24T18:57:23.877Z,103152.43
2018-09-24T19:00:10.402Z,103155.73
2018-09-24T19:02:57.067Z,103147.41
2018-09-24T19:05:43.690Z,103156.87
2018-09-24T19:08:30.517Z,103160.91
2018-09-24T19:11:27.645Z,103171.23
2018-09-24T19:14:03.780Z,103166.00
2018-09-24T19:16:50.134Z,103177.97
2018-09-24T19:19:36.415Z,103175.06
2018-09-24T19:22:22.756Z,103173.55
2018-09-24T19:25:09.303Z,103183.61
2018-09-24T19:27:55.614Z,103174.69
2018-09-24T19:30:42.384Z,103181.70
2018-09-24T19:33:29.274Z,103170.47
2018-09-24T19:36:16.110Z,103184.36
2018-09-24T19:39:02.898Z,103170.81
2018-09-24T19:41:49.852Z,103184.17
2018-09-24T19:44:36.645Z,103187.38
2018-09-24T19:47:23.289Z,103192.58
2018-09-24T19:50:10.184Z,103190.64
2018-09-24T19:52:56.770Z,103192.47
2018-09-24T19:55:43.269Z,103197.41
2018-09-24T19:58:29.773Z,103196.61
2018-09-24T20:01:16.697Z,103205.76
2018-09-24T20:04:03.083Z,103208.80
2018-09-24T20:06:49.700Z,103215.50
2018-09-24T20:09:36.169Z,103216.78
2018-09-24T20:12:22.988Z,103202.09
2018-09-24T20:15:09.717Z,103207.26
2018-09-24T20:17:56.701Z,103211.17
2018-09-24T20:20:43.443Z,103214.55
2018-09-24T20:23:29.816Z,103209.47
2018-09-24T20:26:16.342Z,103215.27
2018-09-24T20:29:02.963Z,103219.49
2018-09-24T20:31:49.429Z,103225.72
2018-09-24T20:34:35.809Z,103227.55
2018-09-24T20:37:22.524Z,103220.38
2018-09-24T20:40:09.010Z,103225.72
2018-09-24T20:42:56.010Z,103233.30
2018-09-24T20:45:42.803Z,103234.50
2018-09-24T20:48:29.276Z,103244.20
2018-09-24T20:51:16.342Z,103243.51
2018-09-24T20:54:02.949Z,103242.30
2018-09-24T20:56:49.362Z,103243.48
2018-09-24T20:59:35.724Z,103250.42
2018-09-24T21:02:22.209Z,103262.34
2018-09-24T21:05:08.525Z,103273.41
2018-09-24T21:07:54.876Z,103279.12
2018-09-24T21:10:41.525Z,103279.77
2018-09-24T21:13:28.288Z,103284.90
2018-09-24T21:16:15.195Z,103291.50
2018-09-24T21:19:02.086Z,103285.27
2018-09-24T21:21:48.420Z,103284.97
2018-09-24T21:24:34.922Z,103282.41
2018-09-24T21:27:21.735Z,103280.91
2018-09-24T21:30:08.082Z,103287.69
2018-09-24T21:32:54.863Z,103280.36
2018-09-24T21:35:41.355Z,103285.38
2018-09-24T21:38:28.174Z,103293.00
2018-09-24T21:41:14.486Z,103292.05
2018-09-24T21:44:01.146Z,103288.64
2018-09-24T21:46:47.572Z,103291.02
2018-09-24T21:49:34.309Z,103282.95
2018-09-24T21:52:21.339Z,103287.36
2018-09-24T21:55:07.609Z,103292.52
2018-09-24T21:57:54.324Z,103291.67
2018-09-24T22:00:41.439Z,103295.89
2018-09-24T22:03:28.252Z,103289.31
2018-09-24T22:06:14.697Z,103299.88
2018-09-24T22:09:01.257Z,103306.03
2018-09-24T22:11:47.683Z,103318.69
2018-09-24T22:14:34.469Z,103315.68
2018-09-24T22:17:20.764Z,103311.76
2018-09-24T22:20:07.149Z,103319.27
2018-09-24T22:22:53.906Z,103312.87
2018-09-24T22:25:40.691Z,103309.86
2018-09-24T22:28:27.060Z,103306.73
2018-09-24T22:31:13.371Z,103310.31
2018-09-24T22:33:59.948Z,103313.52
2018-09-24T22:36:46.290Z,103307.43
2018-09-24T22:39:33.132Z,103300.32
2018-09-24T22:42:19.712Z,103301.37
2018-09-24T22:45:06.519Z,103310.59
2018-09-24T22:47:53.233Z,103304.75
2018-09-24T22:50:40.069Z,103304.02
2018-09-24T22:53:26.643Z,103314.16
2018-09-24T22:56:13.450Z,103312.83
2018-09-24T22:58:59.883Z,103309.62
2018-09-24T23:01:46.629Z,103313.86
2018-09-24T23:04:32.997Z,103305.64
2018-09-24T23:07:19.867Z,103309.97
2018-09-24T23:10:06.266Z,103302.77
2018-09-24T23:12:53.031Z,103303.41
2018-09-24T23:15:39.711Z,103300.73
2018-09-24T23:18:26.059Z,103296.59
2018-09-24T23:21:12.704Z,103308.17
2018-09-24T23:23:59.224Z,103307.26
2018-09-24T23:26:45.598Z,103317.27
2018-09-24T23:29:32.004Z,103320.27
2018-09-24T23:32:18.704Z,103316.23
2018-09-24T23:35:05.180Z,103325.59
2018-09-24T23:37:51.791Z,103316.43
2018-09-24T23:40:38.600Z,103320.83
2018-09-24T23:43:25.234Z,103324.77
2018-09-24T23:46:12.050Z,103321.27
2018-09-24T23:48:58.407Z,103320.10
2018-09-24T23:51:45.413Z,103319.62
2018-09-24T23:54:32.205Z,103326.48
2018-09-24T23:57:18.979Z,103322.09
